Time;durP1;ratioP1;P1;durP2;ratioP2;P2;SDS_P1;SDS_P2;PMS_P1;PMS_P2;Temp;Humidity;BMP_temperature;BMP_pressure;BME280_temperature;BME280_humidity;BME280_pressure;Samples;Min_cycle;Max_cycle;Signal;HPM_P1;HPM_P2
2021/10/18 00:01:40;;;;;;;11.02;6.70;;;12.30;99.90;;;;;;5106146;27;20439;-82
2021/10/18 00:04:06;;;;;;;11.88;7.07;;;12.40;99.90;;;;;;5132214;27;20409;-82
2021/10/18 00:06:32;;;;;;;11.93;7.63;;;12.30;99.90;;;;;;5067687;28;20052;-82
2021/10/18 00:08:59;;;;;;;15.98;8.15;;;12.30;99.90;;;;;;5125317;27;20392;-82
2021/10/18 00:11:25;;;;;;;14.55;8.70;;;12.30;99.90;;;;;;5110653;27;20384;-82
2021/10/18 00:13:51;;;;;;;15.45;8.35;;;12.20;99.90;;;;;;5145528;27;20031;-82
2021/10/18 00:16:16;;;;;;;10.77;7.55;;;12.20;99.90;;;;;;5127654;27;20036;-81
2021/10/18 00:18:42;;;;;;;14.57;8.30;;;12.30;99.90;;;;;;5106215;28;20044;-82
2021/10/18 00:21:09;;;;;;;13.60;7.93;;;12.20;99.90;;;;;;5094355;28;20518;-82
2021/10/18 00:23:35;;;;;;;12.75;8.20;;;12.20;99.90;;;;;;5106425;28;20525;-82
2021/10/18 00:26:00;;;;;;;16.65;8.40;;;12.20;99.90;;;;;;5077369;28;20126;-81
2021/10/18 00:28:26;;;;;;;17.88;8.27;;;12.20;99.90;;;;;;5088379;28;20395;-82
2021/10/18 00:30:52;;;;;;;15.95;8.43;;;12.20;99.90;;;;;;5087580;27;20035;-82
2021/10/18 00:33:18;;;;;;;17.15;8.85;;;12.30;99.90;;;;;;5077527;27;20043;-82
2021/10/18 00:35:44;;;;;;;15.88;8.75;;;12.30;99.90;;;;;;5097072;27;20035;-82
2021/10/18 00:38:10;;;;;;;15.63;9.20;;;12.30;99.90;;;;;;5105104;27;20131;-82
2021/10/18 00:40:36;;;;;;;13.95;8.40;;;12.30;99.90;;;;;;5114542;27;20130;-82
2021/10/18 00:43:02;;;;;;;13.18;8.38;;;12.20;99.90;;;;;;5091101;28;20122;-82
2021/10/18 00:45:28;;;;;;;12.05;8.20;;;12.20;99.90;;;;;;5077064;28;20571;-82
2021/10/18 00:47:53;;;;;;;12.55;8.27;;;12.20;99.90;;;;;;5108669;28;20390;-82
2021/10/18 00:50:19;;;;;;;15.90;9.27;;;12.20;99.90;;;;;;5102412;28;20043;-82
2021/10/18 00:52:45;;;;;;;15.27;8.82;;;12.20;99.90;;;;;;5096509;28;20036;-82
2021/10/18 00:55:12;;;;;;;13.88;8.98;;;12.20;99.90;;;;;;5094175;28;20051;-82
2021/10/18 00:57:38;;;;;;;16.40;8.40;;;12.20;99.90;;;;;;5110140;28;20410;-82
2021/10/18 01:00:06;;;;;;;15.55;9.43;;;12.20;99.90;;;;;;5093944;28;20039;-82
2021/10/18 01:02:32;;;;;;;17.17;8.75;;;12.20;99.90;;;;;;5110260;28;20050;-82
2021/10/18 01:04:59;;;;;;;17.33;9.13;;;12.20;99.90;;;;;;5092033;28;20131;-82
2021/10/18 01:07:25;;;;;;;14.77;9.20;;;12.20;99.90;;;;;;5122603;27;20031;-81
2021/10/18 01:09:51;;;;;;;13.70;9.07;;;12.20;99.90;;;;;;5109998;27;20066;-82
2021/10/18 01:12:17;;;;;;;16.05;9.02;;;12.20;99.90;;;;;;5121068;27;20046;-82
2021/10/18 01:14:43;;;;;;;18.25;9.93;;;12.20;99.90;;;;;;5125203;27;20039;-82
2021/10/18 01:17:09;;;;;;;19.23;9.50;;;12.20;99.90;;;;;;5073484;28;20035;-82
2021/10/18 01:19:34;;;;;;;17.02;9.52;;;12.20;99.90;;;;;;5089466;28;20388;-82
2021/10/18 01:22:02;;;;;;;19.08;9.73;;;12.10;99.90;;;;;;5109913;28;20078;-82
2021/10/18 01:24:35;;;;;;;13.55;9.02;;;12.20;99.90;;;;;;5126585;27;20056;-82
2021/10/18 01:27:01;;;;;;;17.38;10.02;;;12.10;99.90;;;;;;5109385;28;20043;-82
2021/10/18 01:29:35;;;;;;;23.17;9.90;;;12.10;99.90;;;;;;5109520;28;20082;-82
2021/10/18 01:32:04;;;;;;;15.50;9.35;;;12.10;99.90;;;;;;5126605;27;20074;-82
2021/10/18 01:34:30;;;;;;;15.52;9.75;;;12.10;99.90;;;;;;5125954;27;20455;-82
2021/10/18 01:36:59;;;;;;;18.17;9.98;;;12.10;99.90;;;;;;5110043;28;20062;-82
2021/10/18 01:39:25;;;;;;;15.15;9.93;;;12.10;99.90;;;;;;5143305;27;20050;-82
2021/10/18 01:41:50;;;;;;;18.52;9.90;;;12.10;99.90;;;;;;5109428;28;20039;-82
2021/10/18 01:44:16;;;;;;;17.70;10.88;;;12.00;99.90;;;;;;5108577;28;20143;-82
2021/10/18 01:46:42;;;;;;;16.63;10.63;;;12.00;99.90;;;;;;5075998;28;20085;-82
2021/10/18 01:49:08;;;;;;;16.88;10.10;;;12.00;99.90;;;;;;5091864;28;20094;-82
2021/10/18 01:51:34;;;;;;;15.55;10.15;;;12.00;99.90;;;;;;5105772;28;20040;-82
2021/10/18 01:54:00;;;;;;;18.50;11.55;;;11.90;99.90;;;;;;5109603;28;20134;-82
2021/10/18 01:56:26;;;;;;;18.88;11.02;;;12.00;99.90;;;;;;5125765;27;20390;-82
2021/10/18 01:58:52;;;;;;;14.55;10.13;;;12.00;99.90;;;;;;5109133;28;20474;-82
2021/10/18 02:01:18;;;;;;;19.00;10.82;;;11.90;99.90;;;;;;5091538;28;20123;-82
2021/10/18 02:03:44;;;;;;;16.17;11.13;;;11.90;99.90;;;;;;5143113;27;20126;-82
2021/10/18 02:06:10;;;;;;;15.65;9.65;;;11.90;99.90;;;;;;5125734;27;20168;-82
2021/10/18 02:08:37;;;;;;;17.05;9.65;;;11.90;99.90;;;;;;5092370;28;20046;-82
2021/10/18 02:11:04;;;;;;;19.80;10.32;;;11.90;99.90;;;;;;5092299;28;20089;-82
2021/10/18 02:13:31;;;;;;;18.25;10.57;;;11.90;99.90;;;;;;5096940;27;20465;-82
2021/10/18 02:15:56;;;;;;;16.55;10.95;;;11.90;99.90;;;;;;5128453;27;20037;-82
2021/10/18 02:18:22;;;;;;;18.05;9.70;;;11.90;99.90;;;;;;5112472;27;20125;-81
2021/10/18 02:20:49;;;;;;;17.08;10.27;;;11.80;99.90;;;;;;5110165;27;20535;-82
2021/10/18 02:23:15;;;;;;;18.48;10.07;;;11.80;99.90;;;;;;5112381;27;20474;-82
2021/10/18 02:25:40;;;;;;;15.60;9.68;;;11.80;99.90;;;;;;5112885;27;20062;-82
2021/10/18 02:28:06;;;;;;;15.57;10.65;;;11.80;99.90;;;;;;5129981;27;20135;-82
2021/10/18 02:30:32;;;;;;;18.17;10.23;;;11.80;99.90;;;;;;5112322;27;20487;-82
2021/10/18 02:32:58;;;;;;;16.08;10.45;;;11.70;99.90;;;;;;5111539;27;20027;-82
2021/10/18 02:35:23;;;;;;;15.00;10.02;;;11.70;99.90;;;;;;5112689;27;20103;-82
2021/10/18 02:37:49;;;;;;;15.95;10.07;;;11.70;99.90;;;;;;5101288;27;20611;-82
2021/10/18 02:40:15;;;;;;;21.05;10.70;;;11.70;99.90;;;;;;5094868;27;20047;-82
2021/10/18 02:42:41;;;;;;;14.18;10.05;;;11.60;99.90;;;;;;5081542;28;20058;-82
2021/10/18 02:45:08;;;;;;;25.70;11.35;;;11.60;99.90;;;;;;5097802;27;20042;-82
2021/10/18 02:47:35;;;;;;;18.00;11.07;;;11.60;99.90;;;;;;5099354;28;20071;-82
2021/10/18 02:50:00;;;;;;;17.67;10.75;;;11.60;99.90;;;;;;5090998;28;20051;-82
2021/10/18 02:52:26;;;;;;;14.80;9.98;;;11.60;99.90;;;;;;5088950;28;20043;-82
2021/10/18 02:54:54;;;;;;;17.58;10.05;;;11.60;99.90;;;;;;5091239;28;20040;-82
2021/10/18 02:57:20;;;;;;;17.75;10.93;;;11.60;99.90;;;;;;5090587;28;20054;-82
2021/10/18 02:59:45;;;;;;;16.17;9.98;;;11.60;99.90;;;;;;5108317;28;20072;-82
2021/10/18 03:02:11;;;;;;;16.23;10.57;;;11.60;99.90;;;;;;5062814;28;20040;-82
2021/10/18 03:04:37;;;;;;;17.13;10.68;;;11.50;99.90;;;;;;5108018;28;20110;-81
2021/10/18 03:07:03;;;;;;;15.68;10.27;;;11.50;99.90;;;;;;5072411;28;20123;-82
2021/10/18 03:09:28;;;;;;;21.58;10.52;;;11.50;99.90;;;;;;5108468;28;20043;-82
2021/10/18 03:11:54;;;;;;;19.65;10.77;;;11.50;99.90;;;;;;5073958;28;20044;-82
2021/10/18 03:14:20;;;;;;;17.27;11.13;;;11.50;99.90;;;;;;5108036;28;20494;-82
2021/10/18 03:16:45;;;;;;;19.17;11.35;;;11.50;99.90;;;;;;5090922;28;20126;-82
2021/10/18 03:19:11;;;;;;;17.02;12.05;;;11.50;99.90;;;;;;5141961;27;20128;-82
2021/10/18 03:21:37;;;;;;;19.27;11.43;;;11.50;99.90;;;;;;5124512;27;20039;-82
2021/10/18 03:24:03;;;;;;;17.45;11.45;;;11.40;99.90;;;;;;5088847;28;20467;-82
2021/10/18 03:26:28;;;;;;;18.17;11.27;;;11.40;99.90;;;;;;5124568;27;20040;-82
2021/10/18 03:28:54;;;;;;;19.23;11.70;;;11.40;99.90;;;;;;5090404;28;20046;-82
2021/10/18 03:31:20;;;;;;;16.25;11.90;;;11.40;99.90;;;;;;5091007;28;20600;-82
2021/10/18 03:33:45;;;;;;;16.08;11.25;;;11.40;99.90;;;;;;5107202;28;20036;-82
2021/10/18 03:36:11;;;;;;;14.50;10.30;;;11.40;99.90;;;;;;5090567;28;20054;-82
2021/10/18 03:38:37;;;;;;;15.68;10.20;;;11.30;99.90;;;;;;5100475;28;20567;-82
2021/10/18 03:41:03;;;;;;;19.50;11.02;;;11.30;99.90;;;;;;5090712;28;20050;-82
2021/10/18 03:43:29;;;;;;;19.83;11.75;;;11.30;99.90;;;;;;5114564;28;20443;-82
2021/10/18 03:45:54;;;;;;;22.45;12.13;;;11.30;99.90;;;;;;5109220;28;20047;-82
2021/10/18 03:48:20;;;;;;;25.77;12.65;;;11.30;99.90;;;;;;5061984;28;20077;-82
2021/10/18 03:50:46;;;;;;;18.23;11.43;;;11.20;99.90;;;;;;5094403;28;20063;-82
2021/10/18 03:53:12;;;;;;;18.38;11.32;;;11.30;99.90;;;;;;5105507;28;20456;-82
2021/10/18 03:55:37;;;;;;;19.45;11.00;;;11.20;99.90;;;;;;5066968;28;20082;-82
2021/10/18 03:58:03;;;;;;;18.27;10.38;;;11.20;99.90;;;;;;5124524;28;20048;-82
2021/10/18 04:00:30;;;;;;;24.67;11.35;;;11.20;99.90;;;;;;5106893;28;20055;-82
2021/10/18 04:02:55;;;;;;;17.35;11.00;;;11.20;99.90;;;;;;5125003;28;20124;-82
2021/10/18 04:05:21;;;;;;;19.70;11.93;;;11.20;99.90;;;;;;5123114;28;20498;-82
2021/10/18 04:07:48;;;;;;;20.40;11.57;;;11.30;99.90;;;;;;5073514;28;20491;-82
2021/10/18 04:10:18;;;;;;;18.20;11.45;;;11.20;99.90;;;;;;5085663;28;20101;-82
2021/10/18 04:12:44;;;;;;;21.92;12.43;;;11.20;99.90;;;;;;5090220;28;20395;-82
2021/10/18 04:15:10;;;;;;;19.98;11.75;;;11.20;99.90;;;;;;5107132;28;20051;-82
2021/10/18 04:17:36;;;;;;;15.77;10.93;;;11.20;99.90;;;;;;5107429;28;20416;-82
2021/10/18 04:20:04;;;;;;;20.30;12.15;;;11.20;99.90;;;;;;5107030;28;20044;-82
2021/10/18 04:22:30;;;;;;;16.90;11.57;;;11.20;99.90;;;;;;5109680;28;20040;-82
2021/10/18 04:24:56;;;;;;;20.75;11.93;;;11.20;99.90;;;;;;5124514;27;20441;-82
2021/10/18 04:27:22;;;;;;;17.63;11.13;;;11.20;99.90;;;;;;5124303;27;20050;-82
2021/10/18 04:29:48;;;;;;;16.83;11.77;;;11.20;99.90;;;;;;5106883;28;20447;-82
2021/10/18 04:32:13;;;;;;;19.17;11.52;;;11.20;99.90;;;;;;5106333;28;20042;-82
2021/10/18 04:34:39;;;;;;;18.65;11.82;;;11.20;99.90;;;;;;5092912;28;20409;-83
2021/10/18 04:37:05;;;;;;;17.88;11.85;;;11.20;99.90;;;;;;5101569;28;20047;-82
2021/10/18 04:39:31;;;;;;;18.83;12.57;;;11.20;99.90;;;;;;5127843;27;20172;-82
2021/10/18 04:41:57;;;;;;;20.67;11.93;;;11.10;99.90;;;;;;5086947;28;20035;-82
2021/10/18 04:44:22;;;;;;;19.38;12.23;;;11.10;99.90;;;;;;5093596;28;20051;-82
2021/10/18 04:46:48;;;;;;;15.45;11.27;;;11.20;99.90;;;;;;5093030;28;20172;-82
2021/10/18 04:49:14;;;;;;;16.30;11.27;;;11.10;99.90;;;;;;5094004;28;20031;-82
2021/10/18 04:51:40;;;;;;;18.85;11.20;;;11.10;99.90;;;;;;5107023;28;20213;-82
2021/10/18 04:54:05;;;;;;;17.67;11.68;;;11.20;99.90;;;;;;5110698;28;20422;-82
2021/10/18 04:56:31;;;;;;;18.20;11.55;;;11.20;99.90;;;;;;5096999;28;20057;-82
2021/10/18 04:58:57;;;;;;;21.10;12.23;;;11.10;99.90;;;;;;5124277;27;20452;-81
2021/10/18 05:01:23;;;;;;;18.83;12.02;;;11.20;99.90;;;;;;5100460;28;20115;-82
2021/10/18 05:03:48;;;;;;;16.45;11.32;;;11.20;99.90;;;;;;5093626;28;20058;-82
2021/10/18 05:06:14;;;;;;;24.55;12.88;;;11.20;99.90;;;;;;5088232;28;20047;-82
2021/10/18 05:08:40;;;;;;;18.05;11.98;;;11.20;99.90;;;;;;5090322;28;20040;-82
2021/10/18 05:11:06;;;;;;;18.38;12.30;;;11.10;99.90;;;;;;5070106;27;20046;-82
2021/10/18 05:13:31;;;;;;;19.23;11.88;;;11.10;99.90;;;;;;5096679;27;20478;-82
2021/10/18 05:15:57;;;;;;;18.77;12.05;;;11.10;99.90;;;;;;5067243;28;20046;-82
2021/10/18 05:18:23;;;;;;;17.20;12.95;;;11.10;99.90;;;;;;5110135;28;20063;-82
2021/10/18 05:20:50;;;;;;;18.45;11.43;;;11.10;99.90;;;;;;5109578;28;20047;-82
2021/10/18 05:23:16;;;;;;;18.65;11.15;;;11.10;99.90;;;;;;5093223;28;20623;-82
2021/10/18 05:25:42;;;;;;;16.35;11.85;;;11.10;99.90;;;;;;5093452;28;20036;-82
2021/10/18 05:28:09;;;;;;;22.95;11.85;;;11.00;99.90;;;;;;5092358;28;20051;-82
2021/10/18 05:30:35;;;;;;;18.73;11.98;;;11.00;99.90;;;;;;5091670;28;20042;-82
2021/10/18 05:33:02;;;;;;;20.30;12.77;;;11.00;99.90;;;;;;5089679;28;20043;-82
2021/10/18 05:35:28;;;;;;;17.45;11.57;;;11.00;99.90;;;;;;5065226;28;20044;-82
2021/10/18 05:37:55;;;;;;;18.55;11.95;;;11.00;99.90;;;;;;5071780;28;20097;-82
2021/10/18 05:40:22;;;;;;;17.58;12.30;;;10.90;99.90;;;;;;5075347;28;20031;-82
2021/10/18 05:42:48;;;;;;;17.48;11.50;;;10.90;99.90;;;;;;5121956;27;20109;-82
2021/10/18 05:45:15;;;;;;;22.80;12.18;;;10.90;99.90;;;;;;5107632;28;20035;-82
2021/10/18 05:47:51;;;;;;;19.52;11.98;;;10.90;99.90;;;;;;5118332;27;20043;-82
2021/10/18 05:50:17;;;;;;;20.20;12.20;;;10.90;99.90;;;;;;5118072;27;20039;-82
2021/10/18 05:52:43;;;;;;;20.25;11.98;;;10.90;99.90;;;;;;5118663;27;20402;-82
2021/10/18 05:55:09;;;;;;;21.13;12.60;;;10.90;99.90;;;;;;5092864;28;20543;-82
2021/10/18 05:58:04;;;;;;;18.08;11.77;;;10.90;99.90;;;;;;5108747;28;20043;-81
2021/10/18 06:00:48;;;;;;;21.63;13.07;;;10.90;99.90;;;;;;5092105;28;20051;-84
2021/10/18 06:03:15;;;;;;;19.35;11.82;;;10.90;99.90;;;;;;5127946;27;20046;-84
2021/10/18 06:05:46;;;;;;;20.67;12.60;;;10.80;99.90;;;;;;5075973;28;20071;-85
2021/10/18 06:08:14;;;;;;;20.00;12.45;;;10.80;99.90;;;;;;5108986;28;20069;-84
2021/10/18 06:10:41;;;;;;;20.45;13.38;;;10.80;99.90;;;;;;5109300;28;20548;-85
2021/10/18 06:13:07;;;;;;;21.38;12.88;;;10.80;99.90;;;;;;5108429;28;20039;-85
2021/10/18 06:15:34;;;;;;;17.67;13.07;;;10.80;99.90;;;;;;5098694;28;20046;-83
2021/10/18 06:18:07;;;;;;;19.95;12.70;;;10.80;99.90;;;;;;5110311;27;20495;-84
2021/10/18 06:20:33;;;;;;;18.90;12.93;;;10.70;99.90;;;;;;5091866;28;20054;-84
2021/10/18 06:22:59;;;;;;;18.92;13.60;;;10.70;99.90;;;;;;5134615;27;20043;-84
2021/10/18 06:25:25;;;;;;;22.25;12.95;;;10.70;99.90;;;;;;5071822;28;20039;-83
2021/10/18 06:27:51;;;;;;;21.00;13.40;;;10.70;99.90;;;;;;5118975;27;20501;-83
2021/10/18 06:30:16;;;;;;;19.20;13.25;;;10.70;99.90;;;;;;5089402;28;20035;-83
2021/10/18 06:32:42;;;;;;;19.27;13.15;;;10.70;99.90;;;;;;5106665;28;20050;-83
2021/10/18 06:35:08;;;;;;;19.52;13.20;;;10.70;99.90;;;;;;5108553;28;20052;-83
2021/10/18 06:37:34;;;;;;;21.27;13.93;;;10.70;99.90;;;;;;5108654;28;20073;-83
2021/10/18 06:39:59;;;;;;;27.15;14.48;;;10.70;99.90;;;;;;5108306;28;20051;-85
2021/10/18 06:42:25;;;;;;;17.08;13.30;;;10.70;99.90;;;;;;5126246;27;20047;-85
2021/10/18 06:44:51;;;;;;;19.10;12.32;;;10.70;99.90;;;;;;5101048;28;20083;-88
2021/10/18 06:47:18;;;;;;;17.92;13.27;;;10.70;99.90;;;;;;5119055;27;20039;-82
2021/10/18 06:49:44;;;;;;;21.13;12.82;;;10.70;99.90;;;;;;5117131;27;20047;-82
2021/10/18 06:52:09;;;;;;;24.42;14.45;;;10.80;99.90;;;;;;5128947;27;20047;-82
2021/10/18 06:54:40;;;;;;;19.58;14.13;;;10.80;99.90;;;;;;5104150;28;20173;-82
2021/10/18 06:57:06;;;;;;;25.20;14.13;;;10.80;99.90;;;;;;5094517;27;20043;-82
2021/10/18 06:59:32;;;;;;;18.95;13.45;;;10.80;99.90;;;;;;5102076;28;20044;-82
2021/10/18 07:01:58;;;;;;;23.20;13.23;;;10.80;99.90;;;;;;5110728;27;20083;-82
2021/10/18 07:04:26;;;;;;;24.50;13.95;;;10.80;99.90;;;;;;5089118;28;20085;-82
2021/10/18 07:06:52;;;;;;;20.65;13.57;;;10.80;99.90;;;;;;5140707;27;20082;-83
2021/10/18 07:09:18;;;;;;;21.15;13.38;;;10.90;99.90;;;;;;5088154;28;20074;-83
2021/10/18 07:11:43;;;;;;;20.90;14.32;;;10.90;99.90;;;;;;5102938;28;20032;-84
2021/10/18 07:14:09;;;;;;;25.98;14.50;;;10.90;99.90;;;;;;5085389;28;20396;-82
2021/10/18 07:16:35;;;;;;;20.27;14.65;;;10.90;99.90;;;;;;5085707;28;20036;-83
2021/10/18 07:19:01;;;;;;;23.90;14.00;;;10.90;99.90;;;;;;5107761;27;20134;-83
2021/10/18 07:21:27;;;;;;;26.10;14.18;;;11.00;99.90;;;;;;5087420;28;20070;-83
2021/10/18 07:23:55;;;;;;;22.88;13.88;;;11.00;99.90;;;;;;5068976;28;20527;-83
2021/10/18 07:26:21;;;;;;;21.70;14.20;;;11.00;99.90;;;;;;5087620;28;20491;-83
2021/10/18 07:28:47;;;;;;;24.33;14.75;;;11.10;99.90;;;;;;5104125;28;20137;-82
2021/10/18 07:31:13;;;;;;;23.85;14.70;;;11.10;99.90;;;;;;5098595;28;20039;-82
2021/10/18 07:33:39;;;;;;;25.50;14.27;;;11.10;99.90;;;;;;5107992;28;20071;-83
2021/10/18 07:36:09;;;;;;;23.08;14.48;;;11.10;99.90;;;;;;5089969;28;20051;-82
2021/10/18 07:38:37;;;;;;;20.88;13.65;;;11.20;99.90;;;;;;5089758;28;20050;-83
2021/10/18 07:41:03;;;;;;;23.65;14.43;;;11.20;99.90;;;;;;5107900;28;20044;-82
2021/10/18 07:43:29;;;;;;;24.10;15.30;;;11.20;99.90;;;;;;5093919;28;20055;-83
2021/10/18 07:45:55;;;;;;;22.23;15.07;;;11.20;99.90;;;;;;5096311;28;20031;-83
2021/10/18 07:48:21;;;;;;;24.48;15.50;;;11.20;99.90;;;;;;5088752;28;20039;-83
2021/10/18 07:50:46;;;;;;;23.48;14.95;;;11.20;99.90;;;;;;5087848;28;20063;-83
2021/10/18 07:53:12;;;;;;;20.08;14.65;;;11.30;99.90;;;;;;5070062;28;20040;-83
2021/10/18 07:55:38;;;;;;;23.00;15.93;;;11.30;99.90;;;;;;5115893;28;20462;-82
2021/10/18 07:58:04;;;;;;;22.27;16.08;;;11.30;99.90;;;;;;5072547;28;20042;-82
2021/10/18 08:00:30;;;;;;;21.10;15.48;;;11.30;99.90;;;;;;5105482;28;20047;-82
2021/10/18 08:02:56;;;;;;;25.33;16.05;;;11.30;99.90;;;;;;5123615;27;20051;-82
2021/10/18 08:05:23;;;;;;;24.13;16.40;;;11.40;99.90;;;;;;5106569;28;20457;-82
2021/10/18 08:07:50;;;;;;;25.85;15.93;;;11.40;99.90;;;;;;5089109;28;20039;-82
2021/10/18 08:10:24;;;;;;;23.17;15.50;;;11.40;99.90;;;;;;5105343;28;20135;-83
2021/10/18 08:12:52;;;;;;;22.52;15.65;;;11.40;99.90;;;;;;5104164;28;20760;-83
2021/10/18 08:15:19;;;;;;;24.55;16.17;;;11.40;99.90;;;;;;5074490;28;20039;-83
2021/10/18 08:17:46;;;;;;;20.98;15.95;;;11.40;99.90;;;;;;5110060;27;20043;-83
2021/10/18 08:20:11;;;;;;;23.63;15.77;;;11.50;99.90;;;;;;5092318;28;20127;-83
2021/10/18 08:22:37;;;;;;;21.83;15.68;;;11.50;99.90;;;;;;5093045;28;20101;-83
2021/10/18 08:25:04;;;;;;;25.90;16.42;;;11.50;99.90;;;;;;5079288;28;20128;-83
2021/10/18 08:27:29;;;;;;;23.75;16.40;;;11.50;99.90;;;;;;5104068;28;20062;-83
2021/10/18 08:29:56;;;;;;;23.85;16.70;;;11.50;99.90;;;;;;5110072;28;20156;-83
2021/10/18 08:32:22;;;;;;;22.42;16.02;;;11.60;99.90;;;;;;5123639;27;20035;-83
2021/10/18 08:34:48;;;;;;;27.58;17.40;;;11.60;99.90;;;;;;5108410;28;20054;-83
2021/10/18 08:37:14;;;;;;;23.45;16.38;;;11.60;99.90;;;;;;5073893;28;20039;-83
2021/10/18 08:42:26;;;;;;;26.80;17.70;;;11.60;99.90;;;;;;5108893;28;20043;-83
2021/10/18 08:44:51;;;;;;;26.98;16.85;;;11.70;99.90;;;;;;5092325;28;20160;-82
2021/10/18 08:47:17;;;;;;;29.98;19.58;;;11.70;99.90;;;;;;5096503;28;20075;-83
2021/10/18 08:49:43;;;;;;;24.38;18.30;;;11.70;99.90;;;;;;5108666;27;20040;-83
2021/10/18 08:52:11;;;;;;;35.53;18.67;;;11.70;99.90;;;;;;5073306;28;20164;-83
2021/10/18 08:54:37;;;;;;;26.80;19.25;;;11.80;99.90;;;;;;5092564;28;20035;-83
2021/10/18 08:57:03;;;;;;;30.05;18.00;;;11.80;99.90;;;;;;5092122;28;20054;-83
2021/10/18 08:59:28;;;;;;;24.00;17.30;;;11.80;99.90;;;;;;5127124;27;20047;-83
2021/10/18 09:01:58;;;;;;;25.27;17.42;;;11.90;99.90;;;;;;5091616;28;20127;-83
2021/10/18 09:04:30;;;;;;;24.67;17.38;;;11.90;99.90;;;;;;5070194;28;20048;-83
2021/10/18 09:07:12;;;;;;;24.00;17.95;;;11.90;99.90;;;;;;5108103;28;20600;-83
2021/10/18 09:09:50;;;;;;;31.75;18.33;;;12.00;99.90;;;;;;5108302;28;20074;-83
2021/10/18 09:12:28;;;;;;;25.05;18.48;;;12.00;99.90;;;;;;5120309;27;20094;-90
2021/10/18 09:14:59;;;;;;;29.90;18.88;;;12.00;99.90;;;;;;5115394;27;20036;-87
2021/10/18 09:17:34;;;;;;;23.90;17.75;;;12.00;99.90;;;;;;5105815;28;20122;-85
2021/10/18 09:20:20;;;;;;;27.00;17.98;;;12.00;99.90;;;;;;5090060;28;20074;-84
2021/10/18 09:22:46;;;;;;;25.52;18.15;;;12.10;99.90;;;;;;5097461;27;20035;-86
2021/10/18 09:25:11;;;;;;;25.25;18.20;;;12.00;99.90;;;;;;5077095;27;20062;-83
2021/10/18 09:27:37;;;;;;;25.17;18.83;;;12.10;99.90;;;;;;5106561;28;20167;-83
2021/10/18 09:30:03;;;;;;;25.40;18.60;;;12.10;99.90;;;;;;5082775;28;20044;-83
2021/10/18 09:32:30;;;;;;;25.85;19.60;;;12.10;99.90;;;;;;5094055;28;20036;-83
2021/10/18 09:35:08;;;;;;;30.90;18.55;;;12.10;99.90;;;;;;5078580;28;20376;-83
2021/10/18 09:37:42;;;;;;;24.17;18.33;;;12.20;99.90;;;;;;5115325;27;20047;-82
2021/10/18 09:40:09;;;;;;;24.98;18.27;;;12.20;99.90;;;;;;5102391;28;20152;-82
2021/10/18 09:42:35;;;;;;;25.67;19.73;;;12.30;99.90;;;;;;5142109;27;20088;-83
2021/10/18 10:53:43;;;;;;;29.50;19.85;;;12.90;99.90;;;;;;5138586;27;20395;-83
2021/10/18 10:56:45;;;;;;;25.15;18.60;;;13.00;99.90;;;;;;5074751;28;20265;-83
2021/10/18 10:59:25;;;;;;;25.40;18.13;;;13.00;99.90;;;;;;5087317;28;20051;-82
2021/10/18 11:02:11;;;;;;;29.65;19.42;;;13.00;99.90;;;;;;5103000;28;20051;-82
2021/10/18 11:04:42;;;;;;;23.38;18.25;;;13.00;99.90;;;;;;5103609;28;20059;-83
2021/10/18 11:07:13;;;;;;;25.17;18.75;;;13.00;99.90;;;;;;5106129;28;20051;-83
2021/10/18 11:09:50;;;;;;;29.10;19.50;;;13.10;99.90;;;;;;5104366;28;20032;-83
2021/10/18 11:12:38;;;;;;;28.38;18.35;;;13.10;99.90;;;;;;5106675;28;20673;-83
2021/10/18 11:15:09;;;;;;;24.52;19.00;;;13.10;99.90;;;;;;5105676;28;20054;-83
2021/10/18 11:17:40;;;;;;;23.13;17.67;;;13.10;99.90;;;;;;5086151;28;20047;-83
2021/10/18 11:20:09;;;;;;;23.77;18.25;;;13.20;99.90;;;;;;5106172;28;20583;-82
2021/10/18 11:22:41;;;;;;;25.17;17.95;;;13.20;99.90;;;;;;5089773;28;20053;-83
2021/10/18 11:25:11;;;;;;;25.52;18.02;;;13.30;99.90;;;;;;5090077;28;20087;-83
2021/10/18 11:27:38;;;;;;;27.17;19.10;;;13.30;99.90;;;;;;5107264;28;20120;-83
2021/10/18 11:30:14;;;;;;;25.85;18.25;;;13.30;99.90;;;;;;5090181;28;20044;-83
2021/10/18 11:32:40;;;;;;;24.63;17.48;;;13.30;99.90;;;;;;5088851;28;20061;-83
2021/10/18 11:35:12;;;;;;;25.05;18.08;;;13.40;99.90;;;;;;5106636;28;20061;-83
2021/10/18 11:38:11;;;;;;;24.83;17.77;;;13.40;99.90;;;;;;5105698;28;20044;-83
2021/10/18 11:40:44;;;;;;;21.23;16.55;;;13.40;99.90;;;;;;5084369;28;20275;-83
2021/10/18 11:43:23;;;;;;;28.00;17.75;;;13.40;99.90;;;;;;5089657;28;20065;-83
2021/10/18 11:45:51;;;;;;;24.88;16.52;;;13.40;99.90;;;;;;5087703;28;20055;-83
2021/10/18 11:48:20;;;;;;;21.90;16.25;;;13.40;99.90;;;;;;5094907;28;20039;-83
2021/10/18 11:50:54;;;;;;;22.25;16.90;;;13.40;99.90;;;;;;5094794;28;20047;-83
2021/10/18 11:53:26;;;;;;;23.85;16.70;;;13.40;99.90;;;;;;5128390;27;20071;-83
2021/10/18 11:56:12;;;;;;;22.60;16.00;;;13.50;99.90;;;;;;5083496;28;20032;-83
2021/10/18 11:58:38;;;;;;;22.85;17.02;;;13.50;99.90;;;;;;5081692;28;20051;-83
2021/10/18 12:01:14;;;;;;;20.00;15.45;;;13.50;99.90;;;;;;5093950;28;20042;-83
2021/10/18 12:03:39;;;;;;;24.52;15.68;;;13.60;99.90;;;;;;5108854;28;20039;-83
2021/10/18 12:06:08;;;;;;;20.80;15.25;;;13.60;99.90;;;;;;5087712;28;20044;-82
2021/10/18 12:08:36;;;;;;;23.10;14.93;;;13.70;99.90;;;;;;5084020;28;20054;-82
2021/10/18 12:11:05;;;;;;;21.02;15.73;;;13.70;99.90;;;;;;5103868;28;20043;-83
2021/10/18 12:13:39;;;;;;;22.58;16.20;;;13.70;99.90;;;;;;5106757;28;20097;-83
2021/10/18 12:16:22;;;;;;;20.38;15.20;;;13.70;99.90;;;;;;5143434;27;20131;-83
2021/10/18 12:18:58;;;;;;;23.58;15.95;;;13.80;99.90;;;;;;5105323;27;20048;-83
2021/10/18 12:21:30;;;;;;;23.13;16.17;;;13.80;99.90;;;;;;5089290;28;20086;-84
2021/10/18 12:24:02;;;;;;;26.77;18.27;;;13.80;99.90;;;;;;5108206;28;20086;-83
2021/10/18 12:26:52;;;;;;;33.45;20.48;;;13.80;99.90;;;;;;5107565;28;20039;-83
2021/10/18 12:29:23;;;;;;;34.80;20.35;;;13.80;99.90;;;;;;5100972;28;20048;-83
2021/10/18 12:31:50;;;;;;;35.15;22.23;;;13.80;99.90;;;;;;5092230;28;20050;-85
2021/10/18 12:34:25;;;;;;;37.65;21.20;;;13.80;99.90;;;;;;5093337;28;20150;-84
2021/10/18 12:37:00;;;;;;;31.92;20.20;;;13.80;99.90;;;;;;5093019;28;20039;-85
2021/10/18 12:39:35;;;;;;;24.08;16.88;;;13.80;99.90;;;;;;5110634;28;20051;-85
2021/10/18 12:42:02;;;;;;;21.50;15.75;;;13.80;99.90;;;;;;5093515;28;20380;-85
2021/10/18 12:44:30;;;;;;;20.85;14.52;;;13.80;99.90;;;;;;5093765;28;20040;-85
2021/10/18 12:46:55;;;;;;;20.80;15.07;;;13.80;99.90;;;;;;5110294;28;20040;-85
2021/10/18 12:49:28;;;;;;;21.48;15.52;;;13.80;99.90;;;;;;5127293;27;20039;-85
2021/10/18 12:51:54;;;;;;;22.67;15.85;;;13.90;99.90;;;;;;5093161;28;20058;-85
2021/10/18 12:54:24;;;;;;;22.90;15.23;;;13.90;99.90;;;;;;5092708;28;20498;-84
2021/10/18 12:56:56;;;;;;;22.27;16.27;;;13.90;99.90;;;;;;5110312;28;20483;-84
2021/10/18 12:59:22;;;;;;;21.92;16.77;;;13.90;99.90;;;;;;5110067;28;20058;-84
2021/10/18 13:02:07;;;;;;;22.92;15.27;;;13.90;99.90;;;;;;5105547;28;20031;-85
2021/10/18 13:04:33;;;;;;;22.85;15.88;;;13.90;99.90;;;;;;5090719;28;20203;-84
2021/10/18 13:06:59;;;;;;;23.02;14.60;;;13.90;99.90;;;;;;5108658;28;20134;-85
2021/10/18 13:09:24;;;;;;;23.17;15.50;;;14.00;99.90;;;;;;5126400;27;20050;-84
2021/10/18 13:11:50;;;;;;;20.27;15.55;;;14.00;99.90;;;;;;5075672;28;20032;-84
2021/10/18 13:14:17;;;;;;;25.30;15.40;;;14.00;99.90;;;;;;5109614;28;20039;-85
2021/10/18 13:16:43;;;;;;;20.02;15.50;;;14.00;99.90;;;;;;5041870;28;20484;-85
2021/10/18 13:19:08;;;;;;;22.38;16.15;;;14.00;99.90;;;;;;5089647;28;20054;-84
2021/10/18 13:21:35;;;;;;;21.77;16.00;;;14.00;99.90;;;;;;5079187;28;20043;-84
2021/10/18 13:24:03;;;;;;;23.63;16.90;;;14.00;99.90;;;;;;5081695;28;20048;-84
2021/10/18 13:26:29;;;;;;;23.90;16.08;;;13.90;99.90;;;;;;5106146;28;20043;-83
2021/10/18 13:28:55;;;;;;;24.35;16.33;;;13.90;99.90;;;;;;5081707;28;20123;-84
2021/10/18 13:31:20;;;;;;;26.40;17.65;;;13.90;99.90;;;;;;5091745;28;20138;-84
2021/10/18 13:33:46;;;;;;;23.38;17.20;;;13.90;99.90;;;;;;5059151;28;20126;-84
2021/10/18 13:36:12;;;;;;;23.80;17.20;;;13.90;99.90;;;;;;5091205;28;20054;-85
2021/10/18 13:38:38;;;;;;;23.45;16.58;;;13.80;99.90;;;;;;5108089;28;20055;-85
2021/10/18 13:41:04;;;;;;;23.15;16.73;;;13.80;99.90;;;;;;5074782;28;20161;-84
2021/10/18 13:43:30;;;;;;;24.33;16.20;;;13.80;99.90;;;;;;5074648;28;20104;-84